Sunday, April 22, 2018, 9:31 PM EDT
Back to Local

KWWD, Wildwood, Cape May County Airport

Location: Villas, NJ, United States Lat: 39.017
Local Time: 9:31 PM EDT ( 1:31 GMT) Lon: -74.917
Time Zone: US/Eastern Elev: 22 ft

Show me the last for .
Show Decoded

2018-04-22 20:55 METAR KWWD 230055Z AUTO 20005KT 10SM CLR 09/01 A3040 RMK AO2 SLP297 T00890011 =
2018-04-22 19:55 METAR KWWD 222355Z AUTO 17005KT 10SM CLR 09/01 A3038 RMK AO2 SLP292 T00940011
                 10150 20094 55000 =
2018-04-22 18:55 METAR KWWD 222255Z AUTO 17009KT 10SM CLR 11/01 A3038 RMK AO2 SLP290 T01110006 =
2018-04-22 17:55 METAR KWWD 222155Z AUTO 19010KT 10SM CLR 13/01 A3038 RMK AO2 SLP291 T01280006 =
2018-04-22 16:55 METAR KWWD 222055Z AUTO 17010KT 10SM CLR 13/M01 A3039 RMK AO2 SLP292 T01281011
                 56014 =
2018-04-22 15:55 METAR KWWD 221955Z AUTO VRB06KT 10SM CLR 14/M01 A3039 RMK AO2 SLP294 T01391011 =
2018-04-22 14:55 METAR KWWD 221855Z AUTO 15009KT 10SM CLR 13/M04 A3041 RMK AO2 SLP301 T01331039 =
2018-04-22 13:55 METAR KWWD 221755Z AUTO 13011KT 10SM CLR 14/M03 A3043 RMK AO2 SLP305 T01391028
                 10150 20094 56009 =
2018-04-22 12:55 METAR KWWD 221655Z AUTO 15009KT 10SM CLR 14/M04 A3043 RMK AO2 SLP308 T01391039 =
2018-04-22 11:55 METAR KWWD 221555Z AUTO 08007KT 10SM CLR 14/M04 A3044 RMK AO2 SLP312 T01391039 =
2018-04-22 10:55 METAR KWWD 221455Z AUTO 09007KT 10SM CLR 13/M05 A3045 RMK AO2 SLP315 T01331050
                 53007 =
2018-04-22 09:55 METAR KWWD 221355Z AUTO 08008KT 10SM CLR 13/M04 A3044 RMK AO2 SLP312 T01281039 =
2018-04-22 08:55 METAR KWWD 221255Z AUTO 06008KT 10SM CLR 12/M04 A3044 RMK AO2 SLP309 T01171044 =
2018-04-22 07:55 METAR KWWD 221155Z AUTO 03007KT 10SM CLR 09/M01 A3043 RMK AO2 SLP308 T00941006
                 10094 20028 51013 =
2018-04-22 06:55 METAR KWWD 221055Z AUTO 00000KT 10SM CLR 04/03 A3042 RMK AO2 SLP304 T00440028 =
2018-04-22 05:55 METAR KWWD 220955Z AUTO 00000KT 10SM CLR 04/03 A3041 RMK AO2 SLP300 T00390028 =
2018-04-22 04:55 METAR KWWD 220855Z AUTO 00000KT 10SM CLR 05/04 A3040 RMK AO2 SLP296 T00500039
                 53002 =
2018-04-22 03:55 METAR KWWD 220755Z AUTO 32003KT 10SM CLR 07/05 A3039 RMK AO2 SLP295 T00720050 =
2018-04-22 02:55 METAR KWWD 220655Z AUTO 27003KT 10SM CLR 06/04 A3039 RMK AO2 SLP293 T00610044 =
2018-04-22 01:55 METAR KWWD 220555Z AUTO 24003KT 10SM CLR 07/04 A3039 RMK AO2 SLP293 T00670044
                 10089 20067 53002 =
2018-04-22 00:55 METAR KWWD 220455Z AUTO 23004KT 10SM CLR 07/05 A3039 RMK AO2 SLP293 T00720050
                 401390028 =
2018-04-21 23:55 METAR KWWD 220355Z AUTO 20003KT 10SM CLR 07/05 A3038 RMK AO2 SLP290 T00720050 =
2018-04-21 22:55 METAR KWWD 220255Z AUTO 21005KT 10SM CLR 07/05 A3038 RMK AO2 SLP291 T00720050
                 50005 =
2018-04-21 21:55 METAR KWWD 220155Z AUTO 20005KT 10SM CLR 08/04 A3039 RMK AO2 SLP294 T00780044 =

Support USWX by starting your Amazon purchase here.